createdAt,value
2023-04-22T00:03:31.576Z,5.50
2023-04-22T00:08:34.857Z,5.40
2023-04-22T00:13:37.589Z,5.40
2023-04-22T00:18:40.392Z,5.40
2023-04-22T00:23:45.783Z,5.40
2023-04-22T00:28:48.482Z,5.40
2023-04-22T00:33:51.170Z,5.40
2023-04-22T00:38:54.331Z,5.20
2023-04-22T00:43:58.792Z,5.00
2023-04-22T00:49:02.661Z,4.80
2023-04-22T00:54:06.653Z,4.80
2023-04-22T00:59:10.160Z,4.80
2023-04-22T01:04:14.615Z,4.50
2023-04-22T01:09:19.100Z,4.40
2023-04-22T01:14:22.183Z,4.50
2023-04-22T01:19:25.111Z,4.50
2023-04-22T01:24:28.570Z,4.40
2023-04-22T01:29:31.287Z,4.20
2023-04-22T01:34:34.006Z,4.20
2023-04-22T01:39:37.872Z,4.00
2023-04-22T01:44:41.096Z,3.70
2023-04-22T01:49:43.967Z,3.80
2023-04-22T01:54:49.193Z,3.80
2023-04-22T01:59:51.907Z,3.70
2023-04-22T02:04:54.655Z,3.80
2023-04-22T02:09:57.549Z,3.80
2023-04-22T02:15:00.251Z,3.80
2023-04-22T02:20:05.558Z,3.90
2023-04-22T02:25:11.265Z,3.90
2023-04-22T02:30:14.142Z,3.90
2023-04-22T02:35:16.922Z,3.70
2023-04-22T02:40:19.815Z,3.70
2023-04-22T02:45:22.530Z,3.60
2023-04-22T02:50:25.528Z,3.30
2023-04-22T02:55:28.595Z,3.40
2023-04-22T03:00:31.417Z,3.40
2023-04-22T03:05:33.995Z,3.20
2023-04-22T03:10:38.058Z,3.30
2023-04-22T03:15:43.454Z,3.20
2023-04-22T03:20:46.145Z,3.20
2023-04-22T03:25:49.006Z,3.10
2023-04-22T03:30:52.383Z,3.00
2023-04-22T03:35:55.527Z,2.90
2023-04-22T03:40:58.469Z,3.00
2023-04-22T03:46:13.006Z,3.00
2023-04-22T03:51:26.605Z,2.90
2023-04-22T03:56:30.302Z,2.80
2023-04-22T04:01:36.491Z,2.80
2023-04-22T04:06:42.671Z,3.10
2023-04-22T04:11:45.646Z,3.00
2023-04-22T04:16:49.210Z,3.00
2023-04-22T04:22:12.052Z,3.20
2023-04-22T04:27:25.296Z,3.30
2023-04-22T04:32:30.397Z,3.20
2023-04-22T04:37:33.824Z,3.40
2023-04-22T04:42:42.647Z,3.70
2023-04-22T04:47:53.071Z,3.90
2023-04-22T04:53:00.750Z,4.00
2023-04-22T04:58:09.542Z,4.20
2023-04-22T05:03:12.620Z,4.50
2023-04-22T05:08:15.701Z,4.90
2023-04-22T05:13:22.240Z,5.20
2023-04-22T05:18:26.346Z,5.50
2023-04-22T05:23:30.999Z,5.90
2023-04-22T05:28:35.648Z,6.40
2023-04-22T05:33:40.020Z,6.80
2023-04-22T05:38:42.869Z,7.30
2023-04-22T05:43:45.588Z,7.90
2023-04-22T05:48:52.507Z,8.40
2023-04-22T05:54:17.837Z,9.10
2023-04-22T05:59:21.796Z,9.60
2023-04-22T06:04:25.998Z,10.20
2023-04-22T06:09:28.987Z,10.90
2023-04-22T06:14:31.999Z,11.40
2023-04-22T06:19:34.731Z,11.60
2023-04-22T06:24:37.636Z,11.80
2023-04-22T06:29:40.515Z,12.30
2023-04-22T06:34:43.514Z,12.50
2023-04-22T06:39:47.045Z,12.80
2023-04-22T06:45:28.263Z,13.20
2023-04-22T06:50:52.425Z,13.60
2023-04-22T06:55:55.267Z,13.90
2023-04-22T07:00:58.000Z,14.30
2023-04-22T07:06:01.166Z,14.70
2023-04-22T07:11:06.222Z,15.00
2023-04-22T07:16:28.602Z,15.20
2023-04-22T07:21:32.797Z,15.40
2023-04-22T07:26:35.660Z,15.60
2023-04-22T07:31:38.490Z,15.60
2023-04-22T07:36:41.544Z,15.90
2023-04-22T07:41:44.238Z,16.20
2023-04-22T07:46:46.962Z,16.50
2023-04-22T07:51:49.771Z,16.80
2023-04-22T07:56:52.490Z,17.30
2023-04-22T08:01:55.231Z,18.00
2023-04-22T08:06:58.074Z,18.50
2023-04-22T08:12:01.597Z,19.00
2023-04-22T08:17:04.442Z,19.50
2023-04-22T08:22:07.387Z,19.90
2023-04-22T08:27:10.118Z,20.10
2023-04-22T08:32:12.908Z,20.80
2023-04-22T08:37:15.694Z,21.20
2023-04-22T08:42:21.632Z,21.60
2023-04-22T08:47:26.783Z,21.40
2023-04-22T08:52:31.489Z,21.70
2023-04-22T08:57:36.241Z,21.70
2023-04-22T09:02:42.376Z,22.30
2023-04-22T09:07:46.568Z,22.00
2023-04-22T09:12:49.896Z,22.00
2023-04-22T09:17:53.271Z,22.50
2023-04-22T09:22:57.737Z,22.60
2023-04-22T09:28:00.583Z,22.20
2023-04-22T09:33:05.634Z,22.20
2023-04-22T09:38:11.434Z,22.30
2023-04-22T09:43:20.579Z,23.00
2023-04-22T09:48:23.888Z,23.30
2023-04-22T09:53:26.681Z,23.90
2023-04-22T09:58:29.381Z,23.10
2023-04-22T10:03:32.675Z,23.40
2023-04-22T10:08:36.357Z,23.60
2023-04-22T10:13:39.087Z,22.90
2023-04-22T10:18:42.169Z,23.60
2023-04-22T10:23:49.246Z,24.40
2023-04-22T10:28:52.325Z,25.00
2023-04-22T10:34:13.892Z,24.90
2023-04-22T10:39:18.291Z,24.80
2023-04-22T10:44:25.731Z,24.90
2023-04-22T10:49:32.266Z,24.70
2023-04-22T10:54:38.010Z,25.00
2023-04-22T10:59:50.374Z,24.50
2023-04-22T11:05:20.446Z,23.30
2023-04-22T11:10:44.816Z,23.90
2023-04-22T11:15:49.958Z,24.60
2023-04-22T11:20:53.975Z,24.60
2023-04-22T11:26:02.646Z,23.70
2023-04-22T11:31:12.538Z,25.20
2023-04-22T11:36:15.928Z,23.70
2023-04-22T11:41:23.955Z,24.90
2023-04-22T11:46:38.770Z,24.90
2023-04-22T11:51:55.872Z,24.00
2023-04-22T11:56:58.598Z,25.00
2023-04-22T12:02:04.936Z,25.20
2023-04-22T12:07:08.478Z,25.40
2023-04-22T12:12:11.883Z,25.80
2023-04-22T12:17:15.899Z,25.90
2023-04-22T12:22:30.684Z,25.90
2023-04-22T12:27:33.432Z,26.30
2023-04-22T12:32:36.145Z,26.40
2023-04-22T12:37:39.022Z,26.30
2023-04-22T12:42:41.768Z,26.40
2023-04-22T12:47:45.635Z,26.20
2023-04-22T12:52:49.117Z,25.70
2023-04-22T12:57:52.335Z,26.10
2023-04-22T13:02:55.207Z,26.10
2023-04-22T13:08:06.403Z,26.40
2023-04-22T13:13:18.527Z,25.40
2023-04-22T13:18:23.757Z,25.50
2023-04-22T13:23:27.361Z,24.70
2023-04-22T13:28:30.149Z,24.70
2023-04-22T13:33:32.811Z,25.40
2023-04-22T13:38:35.729Z,24.80
2023-04-22T13:43:38.673Z,25.40
2023-04-22T13:48:41.396Z,25.60
2023-04-22T13:53:44.211Z,25.80
2023-04-22T13:58:46.975Z,25.70
2023-04-22T14:03:50.661Z,25.60
2023-04-22T14:08:53.478Z,25.40
2023-04-22T14:13:56.394Z,23.90
2023-04-22T14:18:59.233Z,24.80
2023-04-22T14:24:01.878Z,23.00
2023-04-22T14:29:04.654Z,24.10
2023-04-22T14:34:07.422Z,24.10
2023-04-22T14:39:10.375Z,24.20
2023-04-22T14:44:14.096Z,24.50
2023-04-22T14:49:16.798Z,24.20
2023-04-22T14:54:19.488Z,24.30
2023-04-22T14:59:22.883Z,24.10
2023-04-22T15:04:25.878Z,23.80
2023-04-22T15:09:28.759Z,24.10
2023-04-22T15:14:34.161Z,23.80
2023-04-22T15:19:37.658Z,22.80
2023-04-22T15:24:40.499Z,23.10
2023-04-22T15:29:46.638Z,22.90
2023-04-22T15:34:49.470Z,23.00
2023-04-22T15:39:52.201Z,22.20
2023-04-22T15:44:55.017Z,22.80
2023-04-22T15:50:06.420Z,22.50
2023-04-22T15:55:09.696Z,21.90
2023-04-22T16:00:14.334Z,22.20
2023-04-22T16:05:17.996Z,21.40
2023-04-22T16:10:21.345Z,21.20
2023-04-22T16:15:26.563Z,21.40
2023-04-22T16:20:30.199Z,21.00
2023-04-22T16:25:32.902Z,21.10
2023-04-22T16:30:35.829Z,20.70
2023-04-22T16:35:38.825Z,20.70
2023-04-22T16:40:41.898Z,20.50
2023-04-22T16:45:44.962Z,20.40
2023-04-22T16:50:48.266Z,20.20
2023-04-22T16:55:51.233Z,19.50
2023-04-22T17:00:54.151Z,19.30
2023-04-22T17:05:57.040Z,19.00
2023-04-22T17:11:00.002Z,19.10
2023-04-22T17:16:02.753Z,18.50
2023-04-22T17:21:05.583Z,18.10
2023-04-22T17:26:08.776Z,17.90
2023-04-22T17:31:12.064Z,17.50
2023-04-22T17:36:14.923Z,17.20
2023-04-22T17:41:18.831Z,16.90
2023-04-22T17:46:21.640Z,16.60
2023-04-22T17:51:24.456Z,16.30
2023-04-22T17:56:27.603Z,16.20
2023-04-22T18:01:30.655Z,15.90
2023-04-22T18:06:33.335Z,15.60
2023-04-22T18:11:36.212Z,15.30
2023-04-22T18:16:38.962Z,15.00
2023-04-22T18:21:52.915Z,14.80
2023-04-22T18:27:03.171Z,14.60
2023-04-22T18:32:06.219Z,14.40
2023-04-22T18:37:09.044Z,14.30
2023-04-22T18:42:11.857Z,14.10
2023-04-22T18:47:14.713Z,13.90
2023-04-22T18:52:17.685Z,13.80
2023-04-22T18:57:20.429Z,13.90
2023-04-22T19:02:23.297Z,13.80
2023-04-22T19:07:26.053Z,13.70
2023-04-22T19:12:28.764Z,13.70
2023-04-22T19:17:31.446Z,13.40
2023-04-22T19:22:34.279Z,13.40
2023-04-22T19:27:37.348Z,13.30
2023-04-22T19:32:40.289Z,13.30
2023-04-22T19:37:43.568Z,13.20
2023-04-22T19:42:46.414Z,13.00
2023-04-22T19:47:49.397Z,12.90
2023-04-22T19:53:01.141Z,12.90
2023-04-22T19:58:05.110Z,12.90
2023-04-22T20:03:08.832Z,12.80
2023-04-22T20:08:14.215Z,12.70
2023-04-22T20:13:18.084Z,12.60
2023-04-22T20:18:21.003Z,12.60
2023-04-22T20:23:24.895Z,12.70
2023-04-22T20:28:45.414Z,12.50
2023-04-22T20:33:48.727Z,12.50
2023-04-22T20:38:55.100Z,12.20
2023-04-22T20:43:58.259Z,11.70
2023-04-22T20:49:01.687Z,11.00
2023-04-22T20:54:06.215Z,10.70
2023-04-22T20:59:12.580Z,10.30
2023-04-22T21:04:16.061Z,10.10
2023-04-22T21:09:21.252Z,10.10
2023-04-22T21:14:26.669Z,10.10
2023-04-22T21:19:39.149Z,10.10
2023-04-22T21:24:42.782Z,10.00
2023-04-22T21:29:50.065Z,10.00
2023-04-22T21:34:52.989Z,9.70
2023-04-22T21:39:55.822Z,9.40
2023-04-22T21:44:58.583Z,9.10
2023-04-22T21:50:01.572Z,9.00
2023-04-22T21:55:04.827Z,8.70
2023-04-22T22:00:15.383Z,8.60
2023-04-22T22:05:18.068Z,8.50
2023-04-22T22:10:20.827Z,8.20
2023-04-22T22:15:23.690Z,8.10
2023-04-22T22:20:26.877Z,8.10
2023-04-22T22:25:29.434Z,8.10
2023-04-22T22:30:32.029Z,8.00
2023-04-22T22:35:34.727Z,7.70
2023-04-22T22:40:37.351Z,7.90
2023-04-22T22:45:41.077Z,7.90
2023-04-22T22:50:44.031Z,7.50
2023-04-22T22:55:46.722Z,7.40
2023-04-22T23:00:49.524Z,7.30
2023-04-22T23:05:52.275Z,7.40
2023-04-22T23:10:54.909Z,7.40
2023-04-22T23:15:58.086Z,7.50
2023-04-22T23:21:01.590Z,7.30
2023-04-22T23:26:04.680Z,6.80
2023-04-22T23:31:11.270Z,6.60
2023-04-22T23:36:15.240Z,6.60
2023-04-22T23:41:17.921Z,6.40
2023-04-22T23:46:20.841Z,6.30
2023-04-22T23:51:24.237Z,6.40
2023-04-22T23:56:27.506Z,6.40
